createdAt,value
2018-06-13T00:00:59.543Z,20.83
2018-06-13T00:03:25.551Z,20.66
2018-06-13T00:05:51.549Z,20.61
2018-06-13T00:08:17.533Z,20.68
2018-06-13T00:10:43.528Z,20.54
2018-06-13T00:13:09.545Z,20.09
2018-06-13T00:15:35.582Z,20.22
2018-06-13T00:18:01.603Z,19.86
2018-06-13T00:20:27.602Z,19.79
2018-06-13T00:22:53.611Z,19.90
2018-06-13T00:25:19.585Z,20.20
2018-06-13T00:27:45.600Z,20.60
2018-06-13T00:30:11.591Z,20.74
2018-06-13T00:32:37.591Z,20.63
2018-06-13T00:35:03.613Z,20.43
2018-06-13T00:37:29.635Z,20.32
2018-06-13T00:39:55.617Z,19.86
2018-06-13T00:42:21.626Z,20.61
2018-06-13T00:44:47.647Z,19.98
2018-06-13T00:47:13.703Z,19.67
2018-06-13T00:49:39.719Z,19.88
2018-06-13T00:52:05.706Z,20.52
2018-06-13T00:54:31.736Z,20.10
2018-06-13T00:56:57.772Z,19.97
2018-06-13T00:59:23.772Z,20.23
2018-06-13T01:01:49.762Z,20.20
2018-06-13T01:04:15.748Z,20.13
2018-06-13T01:06:41.740Z,20.15
2018-06-13T01:09:07.730Z,20.34
2018-06-13T01:11:33.728Z,19.99
2018-06-13T01:13:59.743Z,20.11
2018-06-13T01:16:25.753Z,20.12
2018-06-13T01:18:51.762Z,20.23
2018-06-13T01:21:17.762Z,20.10
2018-06-13T01:23:43.767Z,20.01
2018-06-13T01:26:09.761Z,19.60
2018-06-13T01:28:35.755Z,20.47
2018-06-13T01:31:01.803Z,19.87
2018-06-13T01:33:27.826Z,19.90
2018-06-13T01:35:53.860Z,19.85
2018-06-13T01:38:19.860Z,19.76
2018-06-13T01:40:45.842Z,19.55
2018-06-13T01:43:11.845Z,19.92
2018-06-13T01:45:37.856Z,20.03
2018-06-13T01:48:03.849Z,19.64
2018-06-13T01:50:29.827Z,19.85
2018-06-13T01:52:55.840Z,19.74
2018-06-13T01:55:21.843Z,19.68
2018-06-13T01:57:47.871Z,19.31
2018-06-13T02:00:13.887Z,19.37
2018-06-13T02:02:39.884Z,19.26
2018-06-13T02:05:05.863Z,19.42
2018-06-13T02:07:31.876Z,19.51
2018-06-13T02:09:57.899Z,19.76
2018-06-13T02:12:23.899Z,19.58
2018-06-13T02:14:49.916Z,19.49
2018-06-13T02:17:15.934Z,19.08
2018-06-13T02:19:41.924Z,19.65
2018-06-13T02:22:07.908Z,20.02
2018-06-13T02:24:33.968Z,19.74
2018-06-13T02:27:00.003Z,19.68
2018-06-13T02:29:26.017Z,19.56
2018-06-13T02:31:52.004Z,19.32
2018-06-13T02:34:18.022Z,19.36
2018-06-13T02:36:44.012Z,19.58
2018-06-13T02:39:10.004Z,19.49
2018-06-13T02:41:35.991Z,19.51
2018-06-13T02:44:02.079Z,19.44
2018-06-13T02:46:28.081Z,19.62
2018-06-13T02:48:54.097Z,19.77
2018-06-13T02:51:20.129Z,19.74
2018-06-13T02:53:46.152Z,19.77
2018-06-13T02:56:12.157Z,20.05
2018-06-13T02:58:38.216Z,19.20
2018-06-13T03:01:04.254Z,19.37
2018-06-13T03:03:30.297Z,19.75
2018-06-13T03:05:56.288Z,19.24
2018-06-13T03:08:22.309Z,19.18
2018-06-13T03:10:48.296Z,19.16
2018-06-13T03:13:14.328Z,19.44
2018-06-13T03:15:40.320Z,19.29
2018-06-13T03:18:06.314Z,19.60
2018-06-13T03:20:32.368Z,18.78
2018-06-13T03:22:58.375Z,19.23
2018-06-13T03:25:24.373Z,19.32
2018-06-13T03:27:50.375Z,19.16
2018-06-13T03:30:16.411Z,19.05
2018-06-13T03:32:42.420Z,19.51
2018-06-13T03:35:08.447Z,19.84
2018-06-13T03:37:34.450Z,19.62
2018-06-13T03:40:00.515Z,19.11
2018-06-13T03:42:26.564Z,19.16
2018-06-13T03:44:52.572Z,19.09
2018-06-13T03:47:18.576Z,19.07
2018-06-13T03:49:44.578Z,19.75
2018-06-13T03:52:10.578Z,19.44
2018-06-13T03:54:36.585Z,19.25
2018-06-13T03:57:02.679Z,19.26
2018-06-13T03:59:28.673Z,19.34
2018-06-13T04:01:54.681Z,19.25
2018-06-13T04:04:20.692Z,19.63
2018-06-13T04:06:46.680Z,19.20
2018-06-13T04:09:12.661Z,18.65
2018-06-13T04:11:38.618Z,18.54
2018-06-13T04:14:04.581Z,18.97
2018-06-13T04:16:30.531Z,19.92
2018-06-13T04:18:56.554Z,19.72
2018-06-13T04:21:22.516Z,19.55
2018-06-13T04:23:48.462Z,19.88
2018-06-13T04:26:14.397Z,19.67
2018-06-13T04:28:40.375Z,19.26
2018-06-13T04:31:06.327Z,19.39
2018-06-13T04:33:32.256Z,19.93
2018-06-13T04:35:58.230Z,19.76
2018-06-13T04:38:24.185Z,19.71
2018-06-13T04:40:50.137Z,19.28
2018-06-13T04:43:16.096Z,19.75
2018-06-13T04:45:42.065Z,19.27
2018-06-13T04:48:08.008Z,19.33
2018-06-13T04:50:33.965Z,19.66
2018-06-13T04:52:59.911Z,19.23
2018-06-13T04:55:25.878Z,19.61
2018-06-13T04:57:51.838Z,19.88
2018-06-13T05:00:17.800Z,19.62
2018-06-13T05:02:43.782Z,19.42
2018-06-13T05:05:09.725Z,19.30
2018-06-13T05:07:35.669Z,19.95
2018-06-13T05:10:01.631Z,19.33
2018-06-13T05:12:27.587Z,19.55
2018-06-13T05:14:53.586Z,19.20
2018-06-13T05:17:19.505Z,18.94
2018-06-13T05:19:45.469Z,19.45
2018-06-13T05:22:11.467Z,18.93
2018-06-13T05:24:37.423Z,19.39
2018-06-13T05:27:03.480Z,19.53
2018-06-13T05:29:29.464Z,19.40
2018-06-13T05:31:55.448Z,18.80
2018-06-13T05:34:21.420Z,18.64
2018-06-13T05:36:47.383Z,18.46
2018-06-13T05:39:13.322Z,18.44
2018-06-13T05:41:39.272Z,18.04
2018-06-13T05:44:05.204Z,18.11
2018-06-13T05:46:31.171Z,18.07
2018-06-13T05:48:57.127Z,18.38
2018-06-13T05:51:23.075Z,18.36
2018-06-13T05:53:49.037Z,18.28
2018-06-13T05:56:15.037Z,18.46
2018-06-13T05:58:40.978Z,18.30
2018-06-13T06:01:06.990Z,18.15
2018-06-13T06:03:32.925Z,18.31
2018-06-13T06:05:58.917Z,18.44
2018-06-13T06:08:24.954Z,18.06
2018-06-13T06:10:50.958Z,19.25
2018-06-13T06:13:16.949Z,19.13
2018-06-13T06:15:42.909Z,18.90
2018-06-13T06:18:08.975Z,19.02
2018-06-13T06:20:34.935Z,19.15
2018-06-13T06:23:00.877Z,18.71
2018-06-13T06:25:26.812Z,18.94
2018-06-13T06:27:52.756Z,19.16
2018-06-13T06:30:18.739Z,19.33
2018-06-13T06:32:44.699Z,18.95
2018-06-13T06:35:10.656Z,19.22
2018-06-13T06:37:36.599Z,19.36
2018-06-13T06:40:02.529Z,18.82
2018-06-13T06:42:28.460Z,18.54
2018-06-13T06:44:54.403Z,18.80
2018-06-13T06:47:20.359Z,19.25
2018-06-13T06:49:46.331Z,19.25
2018-06-13T06:52:12.281Z,19.70
2018-06-13T06:54:38.213Z,19.09
2018-06-13T06:57:04.194Z,18.84
2018-06-13T06:59:30.152Z,19.12
2018-06-13T07:01:56.122Z,18.89
2018-06-13T07:04:22.097Z,18.81
2018-06-13T07:06:48.065Z,19.02
2018-06-13T07:09:14.016Z,19.34
2018-06-13T07:11:39.964Z,19.03
2018-06-13T07:14:05.924Z,19.58
2018-06-13T07:16:31.885Z,19.43
2018-06-13T07:18:57.907Z,19.04
2018-06-13T07:21:23.827Z,18.48
2018-06-13T07:23:49.784Z,19.03
2018-06-13T07:26:15.793Z,19.07
2018-06-13T07:28:41.748Z,19.26
2018-06-13T07:31:07.752Z,19.39
2018-06-13T07:33:33.742Z,19.44
2018-06-13T07:35:59.676Z,19.54
2018-06-13T07:38:25.614Z,19.27
2018-06-13T07:40:51.548Z,19.41
2018-06-13T07:43:17.488Z,19.33
2018-06-13T07:45:43.448Z,19.20
2018-06-13T07:48:09.416Z,19.17
2018-06-13T07:50:35.357Z,19.10
2018-06-13T07:53:01.316Z,18.99
2018-06-13T07:55:27.368Z,19.07
2018-06-13T07:57:53.312Z,19.09
2018-06-13T08:00:19.256Z,18.95
2018-06-13T08:02:45.197Z,19.03
2018-06-13T08:05:11.183Z,19.07
2018-06-13T08:07:37.148Z,18.90
2018-06-13T08:10:03.118Z,19.04
2018-06-13T08:12:29.055Z,19.27
2018-06-13T08:14:54.996Z,19.39
2018-06-13T08:17:20.933Z,19.38
2018-06-13T08:19:46.870Z,19.41
2018-06-13T08:22:12.832Z,19.61
2018-06-13T08:24:38.784Z,19.58
2018-06-13T08:27:04.736Z,19.79
2018-06-13T08:29:30.724Z,19.75
2018-06-13T08:31:56.686Z,19.92
2018-06-13T08:34:22.633Z,19.81
2018-06-13T08:36:48.564Z,19.96
2018-06-13T08:39:14.514Z,19.94
2018-06-13T08:41:40.451Z,19.57
2018-06-13T08:44:06.395Z,19.36
2018-06-13T08:46:32.416Z,19.39
2018-06-13T08:48:58.384Z,19.63
2018-06-13T08:51:24.340Z,19.50
2018-06-13T08:53:50.327Z,19.55
2018-06-13T08:56:16.285Z,19.37
2018-06-13T08:58:42.227Z,19.44
2018-06-13T09:01:08.161Z,19.67
2018-06-13T09:03:34.131Z,19.66
2018-06-13T09:06:00.096Z,19.64
2018-06-13T09:08:26.139Z,19.84
2018-06-13T09:10:52.124Z,19.97
2018-06-13T09:13:18.105Z,19.95
2018-06-13T09:15:44.063Z,19.77
2018-06-13T09:18:10.011Z,19.83
2018-06-13T09:20:35.994Z,19.63
2018-06-13T09:23:01.942Z,19.50
2018-06-13T09:25:27.886Z,19.45
2018-06-13T09:27:53.847Z,19.44
2018-06-13T09:30:19.876Z,19.45
2018-06-13T09:32:45.839Z,19.67
2018-06-13T09:35:11.796Z,19.49
2018-06-13T09:37:37.867Z,19.24
2018-06-13T09:40:03.857Z,19.15
2018-06-13T09:42:29.837Z,19.17
2018-06-13T09:44:55.781Z,19.16
2018-06-13T09:47:23.454Z,19.26
2018-06-13T09:49:47.724Z,19.13
2018-06-13T09:52:13.659Z,19.27
2018-06-13T09:54:39.672Z,19.41
2018-06-13T09:57:05.697Z,19.64
2018-06-13T09:59:31.729Z,19.58
2018-06-13T10:01:57.721Z,20.47
2018-06-13T10:04:23.768Z,20.77
2018-06-13T10:06:49.814Z,20.93
2018-06-13T10:09:15.822Z,20.51
2018-06-13T10:11:42.872Z,20.72
2018-06-13T10:14:08.917Z,21.19
2018-06-13T10:16:39.121Z,21.33
2018-06-13T10:19:05.165Z,21.17
2018-06-13T10:21:31.307Z,21.51
2018-06-13T10:23:58.325Z,21.13
2018-06-13T10:26:24.430Z,20.97
2018-06-13T10:28:50.558Z,20.83
2018-06-13T10:31:16.604Z,20.75
2018-06-13T10:33:42.629Z,20.77
2018-06-13T10:36:08.668Z,20.83
2018-06-13T10:38:34.708Z,21.11
2018-06-13T10:41:00.728Z,21.46
2018-06-13T10:43:26.715Z,21.52
2018-06-13T10:45:52.770Z,21.47
2018-06-13T10:48:18.783Z,21.21
2018-06-13T10:50:44.839Z,21.38
2018-06-13T10:53:10.838Z,21.41
2018-06-13T10:55:36.994Z,21.53
2018-06-13T10:58:03.004Z,21.58
2018-06-13T11:00:28.999Z,21.33
2018-06-13T11:02:55.033Z,21.29
2018-06-13T11:05:21.065Z,21.31
2018-06-13T11:07:47.080Z,21.30
2018-06-13T11:10:13.140Z,21.36
2018-06-13T11:12:40.116Z,21.21
2018-06-13T11:15:06.207Z,21.43
2018-06-13T11:17:32.344Z,21.24
2018-06-13T11:19:58.380Z,21.35
2018-06-13T11:22:24.484Z,21.28
2018-06-13T11:24:50.583Z,21.40
2018-06-13T11:27:16.538Z,21.63
2018-06-13T11:29:42.562Z,21.48
2018-06-13T11:32:08.563Z,21.64
2018-06-13T11:34:34.579Z,21.57
2018-06-13T11:37:00.666Z,21.36
2018-06-13T11:39:26.620Z,21.74
2018-06-13T11:41:53.648Z,21.32
2018-06-13T11:44:19.632Z,21.49
2018-06-13T11:46:45.625Z,21.61
2018-06-13T11:49:11.616Z,21.51
2018-06-13T11:51:37.646Z,20.45
2018-06-13T11:54:03.680Z,19.54
2018-06-13T11:56:29.673Z,19.38
2018-06-13T11:58:55.645Z,19.20
2018-06-13T12:01:21.679Z,19.40
2018-06-13T12:03:47.654Z,19.28
2018-06-13T12:06:13.737Z,19.27
2018-06-13T12:08:39.670Z,19.02
2018-06-13T12:11:06.398Z,19.09
2018-06-13T12:13:32.437Z,19.16
2018-06-13T12:15:58.445Z,19.18
2018-06-13T12:18:24.407Z,19.29
2018-06-13T12:20:50.440Z,19.02
2018-06-13T12:23:16.466Z,19.00
2018-06-13T12:25:42.530Z,18.83
2018-06-13T12:28:08.522Z,18.71
2018-06-13T12:30:35.208Z,18.70
2018-06-13T12:33:01.151Z,18.70
2018-06-13T12:35:27.143Z,18.75
2018-06-13T12:37:53.104Z,18.76
2018-06-13T12:40:19.206Z,18.98
2018-06-13T12:42:45.218Z,18.89
2018-06-13T12:45:11.210Z,18.77
2018-06-13T12:47:37.207Z,18.86
2018-06-13T12:50:03.179Z,18.69
2018-06-13T12:52:29.175Z,18.76
2018-06-13T12:54:55.151Z,18.69
2018-06-13T12:57:21.096Z,18.86
2018-06-13T12:59:47.033Z,18.92
2018-06-13T13:02:12.965Z,18.72
2018-06-13T13:04:38.974Z,18.97
2018-06-13T13:07:04.915Z,18.91
2018-06-13T13:09:30.846Z,18.81
2018-06-13T13:11:56.864Z,18.95
2018-06-13T13:14:22.791Z,18.92
2018-06-13T13:16:48.765Z,18.77
2018-06-13T13:19:14.726Z,18.96
2018-06-13T13:21:40.673Z,18.92
2018-06-13T13:24:06.628Z,19.00
2018-06-13T13:26:32.588Z,19.14
2018-06-13T13:28:58.516Z,19.33
2018-06-13T13:31:24.476Z,19.36
2018-06-13T13:33:50.453Z,19.53
2018-06-13T13:36:16.398Z,19.41
2018-06-13T13:38:42.334Z,19.46
2018-06-13T13:41:08.325Z,19.43
2018-06-13T13:43:34.266Z,19.42
2018-06-13T13:46:00.580Z,19.64
2018-06-13T13:48:26.493Z,19.66
2018-06-13T13:50:52.438Z,19.58
2018-06-13T13:53:18.378Z,19.53
2018-06-13T13:55:44.338Z,19.55
2018-06-13T13:58:10.299Z,19.39
2018-06-13T14:00:36.289Z,19.50
2018-06-13T14:03:02.233Z,19.58
2018-06-13T14:05:28.197Z,19.48
2018-06-13T14:07:54.157Z,19.43
2018-06-13T14:10:20.118Z,19.52
2018-06-13T14:12:46.081Z,19.53
2018-06-13T14:15:12.036Z,19.68
2018-06-13T14:17:38.013Z,19.40
2018-06-13T14:20:03.998Z,19.63
2018-06-13T14:22:30.062Z,19.52
2018-06-13T14:24:56.836Z,19.54
2018-06-13T14:27:22.786Z,19.56
2018-06-13T14:29:48.717Z,19.35
2018-06-13T14:32:14.727Z,19.49
2018-06-13T14:34:40.708Z,19.41
2018-06-13T14:37:06.652Z,19.56
2018-06-13T14:39:32.662Z,19.59
2018-06-13T14:41:58.677Z,19.47
2018-06-13T14:44:24.631Z,19.48
2018-06-13T14:46:50.703Z,19.46
2018-06-13T14:49:16.666Z,19.53
2018-06-13T14:51:42.600Z,19.52
2018-06-13T14:54:08.548Z,19.48
2018-06-13T14:56:34.560Z,19.71
2018-06-13T14:59:00.481Z,19.56
2018-06-13T15:01:26.429Z,19.58
2018-06-13T15:03:52.624Z,19.37
2018-06-13T15:06:18.578Z,19.42
2018-06-13T15:08:44.546Z,19.43
2018-06-13T15:11:10.528Z,19.46
2018-06-13T15:13:36.499Z,19.44
2018-06-13T15:16:02.489Z,19.44
2018-06-13T15:18:28.474Z,19.46
2018-06-13T15:20:54.469Z,19.36
2018-06-13T15:23:20.488Z,19.33
2018-06-13T15:25:46.515Z,19.47
2018-06-13T15:28:12.516Z,19.37
2018-06-13T15:30:39.501Z,19.55
2018-06-13T15:33:05.481Z,19.56
2018-06-13T15:35:31.462Z,19.45
2018-06-13T15:37:57.447Z,19.46
2018-06-13T15:40:23.468Z,19.09
2018-06-13T15:42:49.537Z,19.35
2018-06-13T15:45:15.574Z,19.52
2018-06-13T15:47:41.575Z,19.59
2018-06-13T15:50:07.815Z,19.40
2018-06-13T15:52:33.854Z,19.40
2018-06-13T15:55:00.076Z,19.39
2018-06-13T15:57:26.241Z,19.49
2018-06-13T15:59:52.337Z,19.14
2018-06-13T16:02:18.339Z,19.07
2018-06-13T16:04:44.302Z,19.15
2018-06-13T16:07:10.284Z,19.01
2018-06-13T16:09:36.267Z,19.09
2018-06-13T16:12:02.209Z,19.13
2018-06-13T16:14:28.337Z,19.05
2018-06-13T16:16:54.324Z,18.91
2018-06-13T16:19:20.322Z,18.99
2018-06-13T16:21:46.345Z,19.10
2018-06-13T16:24:12.379Z,19.33
2018-06-13T16:26:38.364Z,19.00
2018-06-13T16:29:04.680Z,19.07
2018-06-13T16:31:30.689Z,19.19
2018-06-13T16:33:56.674Z,18.95
2018-06-13T16:36:22.636Z,19.28
2018-06-13T16:38:48.632Z,19.29
2018-06-13T16:41:14.657Z,19.18
2018-06-13T16:43:40.695Z,19.21
2018-06-13T16:46:07.193Z,19.26
2018-06-13T16:48:33.312Z,19.11
2018-06-13T16:50:59.224Z,19.31
2018-06-13T16:53:25.213Z,19.20
2018-06-13T16:55:51.190Z,19.20
2018-06-13T16:58:18.255Z,19.31
2018-06-13T17:00:44.277Z,19.24
2018-06-13T17:03:10.283Z,19.14
2018-06-13T17:05:36.296Z,19.10
2018-06-13T17:08:02.258Z,19.11
2018-06-13T17:10:28.240Z,19.20
2018-06-13T17:12:54.241Z,19.07
2018-06-13T17:15:20.315Z,18.95
2018-06-13T17:17:46.357Z,19.00
2018-06-13T17:20:12.356Z,19.09
2018-06-13T17:22:38.342Z,19.13
2018-06-13T17:25:04.328Z,18.86
2018-06-13T17:27:30.337Z,19.03
2018-06-13T17:29:56.383Z,18.91
